sensor_id;sensor_type;location;lat;lon;timestamp;P1;durP1;ratioP1;P2;durP2;ratioP2
33902;SDS011;20194;50.950;5.346;2023-10-08T00:00:23;8.88;;;4.20;;
33902;SDS011;20194;50.950;5.346;2023-10-08T00:03:08;11.50;;;4.10;;
33902;SDS011;20194;50.950;5.346;2023-10-08T00:05:38;9.77;;;4.43;;
33902;SDS011;20194;50.950;5.346;2023-10-08T00:08:05;8.32;;;3.97;;
33902;SDS011;20194;50.950;5.346;2023-10-08T00:10:38;7.53;;;3.92;;
33902;SDS011;20194;50.950;5.346;2023-10-08T00:13:09;9.80;;;3.85;;
33902;SDS011;20194;50.950;5.346;2023-10-08T00:15:35;9.23;;;3.78;;
33902;SDS011;20194;50.950;5.346;2023-10-08T00:18:02;9.18;;;3.60;;
33902;SDS011;20194;50.950;5.346;2023-10-08T00:20:30;8.43;;;3.92;;
33902;SDS011;20194;50.950;5.346;2023-10-08T00:23:12;10.03;;;3.43;;
33902;SDS011;20194;50.950;5.346;2023-10-08T00:25:40;7.93;;;3.72;;
33902;SDS011;20194;50.950;5.346;2023-10-08T00:28:08;8.07;;;3.75;;
33902;SDS011;20194;50.950;5.346;2023-10-08T00:30:38;11.88;;;4.07;;
33902;SDS011;20194;50.950;5.346;2023-10-08T00:33:06;10.32;;;4.07;;
33902;SDS011;20194;50.950;5.346;2023-10-08T00:35:36;9.10;;;3.80;;
33902;SDS011;20194;50.950;5.346;2023-10-08T00:38:07;11.15;;;4.88;;
33902;SDS011;20194;50.950;5.346;2023-10-08T00:40:39;8.25;;;3.42;;
33902;SDS011;20194;50.950;5.346;2023-10-08T00:43:10;7.32;;;3.50;;
33902;SDS011;20194;50.950;5.346;2023-10-08T00:45:54;7.00;;;3.58;;
33902;SDS011;20194;50.950;5.346;2023-10-08T00:48:19;9.15;;;3.75;;
33902;SDS011;20194;50.950;5.346;2023-10-08T00:50:53;8.98;;;3.60;;
33902;SDS011;20194;50.950;5.346;2023-10-08T00:53:34;9.75;;;3.90;;
33902;SDS011;20194;50.950;5.346;2023-10-08T00:56:04;11.05;;;3.90;;
33902;SDS011;20194;50.950;5.346;2023-10-08T00:58:38;9.02;;;4.00;;
33902;SDS011;20194;50.950;5.346;2023-10-08T01:01:06;8.52;;;3.85;;
33902;SDS011;20194;50.950;5.346;2023-10-08T01:03:35;10.07;;;4.28;;
33902;SDS011;20194;50.950;5.346;2023-10-08T01:06:07;8.00;;;3.53;;
33902;SDS011;20194;50.950;5.346;2023-10-08T01:08:36;6.97;;;3.88;;
33902;SDS011;20194;50.950;5.346;2023-10-08T01:11:18;8.48;;;3.42;;
33902;SDS011;20194;50.950;5.346;2023-10-08T01:14:04;11.50;;;4.20;;
33902;SDS011;20194;50.950;5.346;2023-10-08T01:16:32;8.23;;;3.90;;
33902;SDS011;20194;50.950;5.346;2023-10-08T01:18:59;9.98;;;3.78;;
33902;SDS011;20194;50.950;5.346;2023-10-08T01:21:29;7.78;;;3.78;;
33902;SDS011;20194;50.950;5.346;2023-10-08T01:24:05;6.90;;;3.63;;
33902;SDS011;20194;50.950;5.346;2023-10-08T01:26:34;7.75;;;3.67;;
33902;SDS011;20194;50.950;5.346;2023-10-08T01:29:04;7.40;;;4.18;;
33902;SDS011;20194;50.950;5.346;2023-10-08T01:31:44;8.63;;;3.58;;
33902;SDS011;20194;50.950;5.346;2023-10-08T01:34:11;12.55;;;3.83;;
33902;SDS011;20194;50.950;5.346;2023-10-08T01:36:42;11.90;;;3.58;;
33902;SDS011;20194;50.950;5.346;2023-10-08T01:39:11;11.32;;;4.15;;
33902;SDS011;20194;50.950;5.346;2023-10-08T01:41:44;9.82;;;3.70;;
33902;SDS011;20194;50.950;5.346;2023-10-08T01:44:12;10.57;;;4.00;;
33902;SDS011;20194;50.950;5.346;2023-10-08T01:46:38;7.80;;;3.40;;
33902;SDS011;20194;50.950;5.346;2023-10-08T01:49:06;6.97;;;3.53;;
33902;SDS011;20194;50.950;5.346;2023-10-08T01:51:54;9.00;;;3.50;;
33902;SDS011;20194;50.950;5.346;2023-10-08T01:54:20;7.32;;;3.70;;
33902;SDS011;20194;50.950;5.346;2023-10-08T01:56:46;9.60;;;3.65;;
33902;SDS011;20194;50.950;5.346;2023-10-08T01:59:13;9.50;;;3.60;;
33902;SDS011;20194;50.950;5.346;2023-10-08T02:01:40;13.65;;;4.43;;
33902;SDS011;20194;50.950;5.346;2023-10-08T02:04:08;9.27;;;3.50;;
33902;SDS011;20194;50.950;5.346;2023-10-08T02:06:35;7.55;;;3.63;;
33902;SDS011;20194;50.950;5.346;2023-10-08T02:09:01;7.07;;;3.05;;
33902;SDS011;20194;50.950;5.346;2023-10-08T02:11:46;7.97;;;3.67;;
33902;SDS011;20194;50.950;5.346;2023-10-08T02:14:18;13.27;;;4.40;;
33902;SDS011;20194;50.950;5.346;2023-10-08T02:16:45;7.30;;;3.63;;
33902;SDS011;20194;50.950;5.346;2023-10-08T02:19:12;8.40;;;4.10;;
33902;SDS011;20194;50.950;5.346;2023-10-08T02:21:39;10.13;;;4.20;;
33902;SDS011;20194;50.950;5.346;2023-10-08T02:24:08;7.53;;;3.65;;
33902;SDS011;20194;50.950;5.346;2023-10-08T02:26:36;8.52;;;3.47;;
33902;SDS011;20194;50.950;5.346;2023-10-08T02:29:02;8.57;;;3.90;;
33902;SDS011;20194;50.950;5.346;2023-10-08T02:31:31;12.50;;;3.72;;
33902;SDS011;20194;50.950;5.346;2023-10-08T02:33:57;7.53;;;4.10;;
33902;SDS011;20194;50.950;5.346;2023-10-08T02:36:24;6.90;;;3.28;;
33902;SDS011;20194;50.950;5.346;2023-10-08T02:38:49;8.07;;;3.78;;
33902;SDS011;20194;50.950;5.346;2023-10-08T02:41:16;8.77;;;3.95;;
33902;SDS011;20194;50.950;5.346;2023-10-08T02:43:42;12.85;;;3.88;;
33902;SDS011;20194;50.950;5.346;2023-10-08T02:46:10;9.10;;;4.13;;
33902;SDS011;20194;50.950;5.346;2023-10-08T02:48:40;10.43;;;3.75;;
33902;SDS011;20194;50.950;5.346;2023-10-08T02:51:06;7.88;;;3.80;;
33902;SDS011;20194;50.950;5.346;2023-10-08T02:53:39;7.03;;;3.30;;
33902;SDS011;20194;50.950;5.346;2023-10-08T02:56:07;10.68;;;3.88;;
33902;SDS011;20194;50.950;5.346;2023-10-08T02:58:38;6.97;;;3.30;;
33902;SDS011;20194;50.950;5.346;2023-10-08T03:01:07;7.05;;;3.50;;
33902;SDS011;20194;50.950;5.346;2023-10-08T03:03:37;8.52;;;3.90;;
33902;SDS011;20194;50.950;5.346;2023-10-08T03:06:11;10.23;;;3.33;;
33902;SDS011;20194;50.950;5.346;2023-10-08T03:08:39;9.75;;;3.90;;
33902;SDS011;20194;50.950;5.346;2023-10-08T03:11:08;9.57;;;3.60;;
33902;SDS011;20194;50.950;5.346;2023-10-08T03:13:42;9.30;;;3.88;;
33902;SDS011;20194;50.950;5.346;2023-10-08T03:16:17;7.78;;;3.60;;
33902;SDS011;20194;50.950;5.346;2023-10-08T03:18:46;8.23;;;3.55;;
33902;SDS011;20194;50.950;5.346;2023-10-08T03:21:15;10.55;;;3.90;;
33902;SDS011;20194;50.950;5.346;2023-10-08T03:23:58;9.97;;;3.83;;
33902;SDS011;20194;50.950;5.346;2023-10-08T03:26:24;11.43;;;4.15;;
33902;SDS011;20194;50.950;5.346;2023-10-08T03:28:55;9.13;;;3.67;;
33902;SDS011;20194;50.950;5.346;2023-10-08T03:31:23;8.55;;;3.85;;
33902;SDS011;20194;50.950;5.346;2023-10-08T03:34:09;9.93;;;3.88;;
33902;SDS011;20194;50.950;5.346;2023-10-08T03:36:39;12.23;;;3.42;;
33902;SDS011;20194;50.950;5.346;2023-10-08T03:39:13;11.52;;;3.83;;
33902;SDS011;20194;50.950;5.346;2023-10-08T03:41:40;10.20;;;4.13;;
33902;SDS011;20194;50.950;5.346;2023-10-08T03:44:21;13.77;;;4.28;;
33902;SDS011;20194;50.950;5.346;2023-10-08T03:46:46;8.73;;;3.20;;
33902;SDS011;20194;50.950;5.346;2023-10-08T03:49:13;8.00;;;3.70;;
33902;SDS011;20194;50.950;5.346;2023-10-08T03:51:57;10.77;;;4.65;;
33902;SDS011;20194;50.950;5.346;2023-10-08T03:54:22;7.72;;;4.15;;
33902;SDS011;20194;50.950;5.346;2023-10-08T03:56:55;8.27;;;3.80;;
33902;SDS011;20194;50.950;5.346;2023-10-08T03:59:21;9.77;;;4.95;;
33902;SDS011;20194;50.950;5.346;2023-10-08T04:01:57;8.15;;;3.92;;
33902;SDS011;20194;50.950;5.346;2023-10-08T04:04:24;9.00;;;3.85;;
33902;SDS011;20194;50.950;5.346;2023-10-08T04:07:10;6.38;;;3.58;;
33902;SDS011;20194;50.950;5.346;2023-10-08T04:09:50;7.47;;;3.53;;
33902;SDS011;20194;50.950;5.346;2023-10-08T04:12:29;10.07;;;3.53;;
33902;SDS011;20194;50.950;5.346;2023-10-08T04:14:59;11.48;;;3.67;;
33902;SDS011;20194;50.950;5.346;2023-10-08T04:17:37;6.47;;;3.97;;
33902;SDS011;20194;50.950;5.346;2023-10-08T04:20:15;10.82;;;3.78;;
33902;SDS011;20194;50.950;5.346;2023-10-08T04:23:02;10.45;;;3.20;;
33902;SDS011;20194;50.950;5.346;2023-10-08T04:25:30;10.13;;;3.53;;
33902;SDS011;20194;50.950;5.346;2023-10-08T04:27:57;8.73;;;3.72;;
33902;SDS011;20194;50.950;5.346;2023-10-08T04:33:01;7.13;;;3.70;;
33902;SDS011;20194;50.950;5.346;2023-10-08T04:35:36;8.68;;;4.30;;
33902;SDS011;20194;50.950;5.346;2023-10-08T04:38:24;10.32;;;4.03;;
33902;SDS011;20194;50.950;5.346;2023-10-08T04:40:51;7.50;;;3.63;;
33902;SDS011;20194;50.950;5.346;2023-10-08T04:43:18;8.27;;;3.15;;
33902;SDS011;20194;50.950;5.346;2023-10-08T04:45:52;8.98;;;3.47;;
33902;SDS011;20194;50.950;5.346;2023-10-08T04:48:33;8.27;;;3.47;;
33902;SDS011;20194;50.950;5.346;2023-10-08T04:51:01;8.52;;;3.75;;
33902;SDS011;20194;50.950;5.346;2023-10-08T04:53:31;6.30;;;3.35;;
33902;SDS011;20194;50.950;5.346;2023-10-08T04:56:01;10.60;;;3.40;;
33902;SDS011;20194;50.950;5.346;2023-10-08T04:58:32;7.63;;;3.25;;
33902;SDS011;20194;50.950;5.346;2023-10-08T05:00:59;9.88;;;3.83;;
33902;SDS011;20194;50.950;5.346;2023-10-08T05:03:42;13.23;;;3.65;;
33902;SDS011;20194;50.950;5.346;2023-10-08T05:06:31;7.05;;;3.88;;
33902;SDS011;20194;50.950;5.346;2023-10-08T05:09:03;8.15;;;3.42;;
33902;SDS011;20194;50.950;5.346;2023-10-08T05:11:38;9.40;;;4.05;;
33902;SDS011;20194;50.950;5.346;2023-10-08T05:14:30;8.15;;;3.80;;
33902;SDS011;20194;50.950;5.346;2023-10-08T05:16:59;7.93;;;3.30;;
33902;SDS011;20194;50.950;5.346;2023-10-08T05:19:28;9.35;;;4.18;;
33902;SDS011;20194;50.950;5.346;2023-10-08T05:22:13;11.70;;;4.20;;
33902;SDS011;20194;50.950;5.346;2023-10-08T05:25:03;9.68;;;4.30;;
33902;SDS011;20194;50.950;5.346;2023-10-08T05:27:40;10.88;;;4.10;;
33902;SDS011;20194;50.950;5.346;2023-10-08T05:30:16;10.98;;;3.97;;
33902;SDS011;20194;50.950;5.346;2023-10-08T05:33:01;8.45;;;3.83;;
33902;SDS011;20194;50.950;5.346;2023-10-08T05:35:28;10.18;;;3.90;;
33902;SDS011;20194;50.950;5.346;2023-10-08T05:38:23;8.18;;;4.50;;
33902;SDS011;20194;50.950;5.346;2023-10-08T05:41:04;8.73;;;4.07;;
33902;SDS011;20194;50.950;5.346;2023-10-08T05:43:31;9.40;;;4.15;;
33902;SDS011;20194;50.950;5.346;2023-10-08T05:46:07;10.57;;;4.32;;
33902;SDS011;20194;50.950;5.346;2023-10-08T05:48:55;10.95;;;4.93;;
33902;SDS011;20194;50.950;5.346;2023-10-08T05:51:32;10.30;;;3.72;;
33902;SDS011;20194;50.950;5.346;2023-10-08T05:54:17;7.53;;;3.70;;
33902;SDS011;20194;50.950;5.346;2023-10-08T05:56:56;7.55;;;3.92;;
33902;SDS011;20194;50.950;5.346;2023-10-08T05:59:49;10.20;;;4.13;;
33902;SDS011;20194;50.950;5.346;2023-10-08T06:05:00;10.70;;;4.57;;
33902;SDS011;20194;50.950;5.346;2023-10-08T06:07:49;7.15;;;3.80;;
33902;SDS011;20194;50.950;5.346;2023-10-08T06:10:19;8.80;;;3.67;;
33902;SDS011;20194;50.950;5.346;2023-10-08T06:13:13;9.60;;;3.90;;
33902;SDS011;20194;50.950;5.346;2023-10-08T06:15:55;11.70;;;3.75;;
33902;SDS011;20194;50.950;5.346;2023-10-08T06:20:52;11.27;;;4.22;;
33902;SDS011;20194;50.950;5.346;2023-10-08T06:23:23;9.45;;;4.00;;
33902;SDS011;20194;50.950;5.346;2023-10-08T06:25:50;10.50;;;3.97;;
33902;SDS011;20194;50.950;5.346;2023-10-08T06:28:23;12.13;;;4.53;;
33902;SDS011;20194;50.950;5.346;2023-10-08T06:30:52;10.85;;;4.72;;
33902;SDS011;20194;50.950;5.346;2023-10-08T06:33:20;10.43;;;4.00;;
33902;SDS011;20194;50.950;5.346;2023-10-08T06:35:47;9.43;;;3.90;;
33902;SDS011;20194;50.950;5.346;2023-10-08T06:38:34;6.97;;;3.55;;
33902;SDS011;20194;50.950;5.346;2023-10-08T06:41:00;9.60;;;3.67;;
33902;SDS011;20194;50.950;5.346;2023-10-08T06:43:34;8.90;;;3.50;;
33902;SDS011;20194;50.950;5.346;2023-10-08T06:46:02;8.95;;;3.42;;
33902;SDS011;20194;50.950;5.346;2023-10-08T06:48:37;8.88;;;4.03;;
33902;SDS011;20194;50.950;5.346;2023-10-08T06:51:07;9.15;;;4.35;;
33902;SDS011;20194;50.950;5.346;2023-10-08T06:53:39;8.38;;;3.50;;
33902;SDS011;20194;50.950;5.346;2023-10-08T06:56:06;9.10;;;4.47;;
33902;SDS011;20194;50.950;5.346;2023-10-08T06:58:34;7.20;;;4.22;;
33902;SDS011;20194;50.950;5.346;2023-10-08T07:01:01;14.70;;;4.40;;
33902;SDS011;20194;50.950;5.346;2023-10-08T07:03:33;7.25;;;4.18;;
33902;SDS011;20194;50.950;5.346;2023-10-08T07:05:59;10.82;;;4.78;;
33902;SDS011;20194;50.950;5.346;2023-10-08T07:08:28;10.65;;;4.20;;
33902;SDS011;20194;50.950;5.346;2023-10-08T07:10:59;10.02;;;5.20;;
33902;SDS011;20194;50.950;5.346;2023-10-08T07:13:26;12.57;;;4.57;;
33902;SDS011;20194;50.950;5.346;2023-10-08T07:15:54;7.95;;;4.35;;
33902;SDS011;20194;50.950;5.346;2023-10-08T07:18:20;10.50;;;5.07;;
33902;SDS011;20194;50.950;5.346;2023-10-08T07:20:50;12.63;;;4.50;;
33902;SDS011;20194;50.950;5.346;2023-10-08T07:23:21;12.52;;;4.57;;
33902;SDS011;20194;50.950;5.346;2023-10-08T07:25:54;9.77;;;4.47;;
33902;SDS011;20194;50.950;5.346;2023-10-08T07:28:35;9.50;;;4.38;;
33902;SDS011;20194;50.950;5.346;2023-10-08T07:31:18;10.57;;;4.53;;
33902;SDS011;20194;50.950;5.346;2023-10-08T07:33:50;12.05;;;4.30;;
33902;SDS011;20194;50.950;5.346;2023-10-08T07:36:25;14.02;;;4.90;;
33902;SDS011;20194;50.950;5.346;2023-10-08T07:38:52;12.02;;;5.15;;
33902;SDS011;20194;50.950;5.346;2023-10-08T07:41:19;8.15;;;4.75;;
33902;SDS011;20194;50.950;5.346;2023-10-08T07:43:45;11.55;;;4.60;;
33902;SDS011;20194;50.950;5.346;2023-10-08T07:46:24;9.73;;;4.38;;
33902;SDS011;20194;50.950;5.346;2023-10-08T07:48:56;10.25;;;4.55;;
33902;SDS011;20194;50.950;5.346;2023-10-08T07:51:23;9.40;;;4.63;;
33902;SDS011;20194;50.950;5.346;2023-10-08T07:53:49;16.90;;;5.53;;
33902;SDS011;20194;50.950;5.346;2023-10-08T07:56:20;11.38;;;5.05;;
33902;SDS011;20194;50.950;5.346;2023-10-08T07:58:47;10.40;;;5.05;;
33902;SDS011;20194;50.950;5.346;2023-10-08T08:01:13;10.00;;;5.32;;
33902;SDS011;20194;50.950;5.346;2023-10-08T08:03:39;16.40;;;5.05;;
33902;SDS011;20194;50.950;5.346;2023-10-08T08:06:07;9.05;;;4.13;;
33902;SDS011;20194;50.950;5.346;2023-10-08T08:08:34;12.10;;;5.28;;
33902;SDS011;20194;50.950;5.346;2023-10-08T08:11:04;16.17;;;5.65;;
33902;SDS011;20194;50.950;5.346;2023-10-08T08:13:35;9.85;;;5.60;;
33902;SDS011;20194;50.950;5.346;2023-10-08T08:16:01;13.35;;;4.72;;
33902;SDS011;20194;50.950;5.346;2023-10-08T08:18:55;13.48;;;4.88;;
33902;SDS011;20194;50.950;5.346;2023-10-08T08:21:23;14.57;;;5.93;;
33902;SDS011;20194;50.950;5.346;2023-10-08T08:23:49;13.10;;;5.90;;
33902;SDS011;20194;50.950;5.346;2023-10-08T08:26:18;11.65;;;5.43;;
33902;SDS011;20194;50.950;5.346;2023-10-08T08:28:59;10.80;;;5.25;;
33902;SDS011;20194;50.950;5.346;2023-10-08T08:31:27;14.30;;;5.57;;
33902;SDS011;20194;50.950;5.346;2023-10-08T08:33:56;17.17;;;5.07;;
33902;SDS011;20194;50.950;5.346;2023-10-08T08:36:28;10.88;;;4.90;;
33902;SDS011;20194;50.950;5.346;2023-10-08T08:38:55;12.95;;;4.50;;
33902;SDS011;20194;50.950;5.346;2023-10-08T08:41:21;10.95;;;5.13;;
33902;SDS011;20194;50.950;5.346;2023-10-08T08:43:52;11.88;;;5.35;;
33902;SDS011;20194;50.950;5.346;2023-10-08T08:46:31;19.73;;;5.07;;
33902;SDS011;20194;50.950;5.346;2023-10-08T08:48:58;15.50;;;5.28;;
33902;SDS011;20194;50.950;5.346;2023-10-08T08:51:30;11.15;;;5.35;;
33902;SDS011;20194;50.950;5.346;2023-10-08T08:53:56;17.50;;;5.43;;
33902;SDS011;20194;50.950;5.346;2023-10-08T08:56:25;17.88;;;5.40;;
33902;SDS011;20194;50.950;5.346;2023-10-08T08:58:53;12.45;;;4.95;;
33902;SDS011;20194;50.950;5.346;2023-10-08T09:01:23;16.80;;;5.60;;
33902;SDS011;20194;50.950;5.346;2023-10-08T09:03:48;16.83;;;5.88;;
33902;SDS011;20194;50.950;5.346;2023-10-08T09:06:15;17.00;;;5.75;;
33902;SDS011;20194;50.950;5.346;2023-10-08T09:08:41;16.05;;;6.43;;
33902;SDS011;20194;50.950;5.346;2023-10-08T09:11:13;19.33;;;5.95;;
33902;SDS011;20194;50.950;5.346;2023-10-08T09:13:40;22.65;;;6.28;;
33902;SDS011;20194;50.950;5.346;2023-10-08T09:18:36;13.98;;;6.25;;
33902;SDS011;20194;50.950;5.346;2023-10-08T09:21:10;16.63;;;6.18;;
33902;SDS011;20194;50.950;5.346;2023-10-08T09:23:39;16.58;;;6.43;;
33902;SDS011;20194;50.950;5.346;2023-10-08T09:26:12;14.93;;;6.00;;
33902;SDS011;20194;50.950;5.346;2023-10-08T09:28:40;15.70;;;5.80;;
33902;SDS011;20194;50.950;5.346;2023-10-08T09:31:16;17.77;;;6.97;;
33902;SDS011;20194;50.950;5.346;2023-10-08T09:34:03;13.50;;;5.88;;
33902;SDS011;20194;50.950;5.346;2023-10-08T09:36:29;19.65;;;5.90;;
33902;SDS011;20194;50.950;5.346;2023-10-08T09:39:00;21.50;;;7.05;;
33902;SDS011;20194;50.950;5.346;2023-10-08T09:41:31;18.20;;;6.18;;
33902;SDS011;20194;50.950;5.346;2023-10-08T09:43:58;17.70;;;6.82;;
33902;SDS011;20194;50.950;5.346;2023-10-08T09:46:31;14.75;;;6.05;;
33902;SDS011;20194;50.950;5.346;2023-10-08T09:49:01;14.63;;;6.38;;
33902;SDS011;20194;50.950;5.346;2023-10-08T09:51:35;16.10;;;6.82;;
33902;SDS011;20194;50.950;5.346;2023-10-08T09:57:17;19.05;;;6.43;;
33902;SDS011;20194;50.950;5.346;2023-10-08T09:59:46;17.80;;;6.85;;
33902;SDS011;20194;50.950;5.346;2023-10-08T10:02:14;22.67;;;7.40;;
33902;SDS011;20194;50.950;5.346;2023-10-08T10:04:42;13.80;;;5.55;;
33902;SDS011;20194;50.950;5.346;2023-10-08T10:07:10;15.15;;;5.97;;
33902;SDS011;20194;50.950;5.346;2023-10-08T10:09:45;11.43;;;5.88;;
33902;SDS011;20194;50.950;5.346;2023-10-08T10:12:12;21.27;;;6.82;;
33902;SDS011;20194;50.950;5.346;2023-10-08T10:14:44;14.75;;;7.22;;
33902;SDS011;20194;50.950;5.346;2023-10-08T10:17:14;18.10;;;6.40;;
33902;SDS011;20194;50.950;5.346;2023-10-08T10:19:49;16.40;;;6.53;;
33902;SDS011;20194;50.950;5.346;2023-10-08T10:22:27;17.17;;;5.93;;
33902;SDS011;20194;50.950;5.346;2023-10-08T10:25:00;17.75;;;7.30;;
33902;SDS011;20194;50.950;5.346;2023-10-08T10:27:41;19.80;;;6.97;;
33902;SDS011;20194;50.950;5.346;2023-10-08T10:30:16;19.63;;;5.90;;
33902;SDS011;20194;50.950;5.346;2023-10-08T10:32:44;17.35;;;6.50;;
33902;SDS011;20194;50.950;5.346;2023-10-08T10:35:16;13.90;;;6.88;;
33902;SDS011;20194;50.950;5.346;2023-10-08T10:37:44;14.45;;;5.00;;
33902;SDS011;20194;50.950;5.346;2023-10-08T10:40:25;12.07;;;6.13;;
33902;SDS011;20194;50.950;5.346;2023-10-08T10:42:58;15.80;;;6.07;;
33902;SDS011;20194;50.950;5.346;2023-10-08T10:45:29;15.30;;;6.72;;
33902;SDS011;20194;50.950;5.346;2023-10-08T10:48:05;15.93;;;6.20;;
33902;SDS011;20194;50.950;5.346;2023-10-08T10:50:47;22.92;;;6.10;;
33902;SDS011;20194;50.950;5.346;2023-10-08T10:53:36;15.32;;;6.70;;
33902;SDS011;20194;50.950;5.346;2023-10-08T10:56:18;17.00;;;6.47;;
33902;SDS011;20194;50.950;5.346;2023-10-08T10:58:47;12.63;;;6.45;;
33902;SDS011;20194;50.950;5.346;2023-10-08T11:01:19;22.98;;;6.97;;
33902;SDS011;20194;50.950;5.346;2023-10-08T11:03:51;17.30;;;6.75;;
33902;SDS011;20194;50.950;5.346;2023-10-08T11:06:21;14.73;;;6.05;;
33902;SDS011;20194;50.950;5.346;2023-10-08T11:08:51;19.15;;;6.25;;
33902;SDS011;20194;50.950;5.346;2023-10-08T11:11:18;22.73;;;7.72;;
33902;SDS011;20194;50.950;5.346;2023-10-08T11:13:52;14.75;;;6.65;;
33902;SDS011;20194;50.950;5.346;2023-10-08T11:16:25;17.13;;;7.10;;
33902;SDS011;20194;50.950;5.346;2023-10-08T11:18:51;17.08;;;7.38;;
33902;SDS011;20194;50.950;5.346;2023-10-08T11:21:22;19.02;;;7.95;;
33902;SDS011;20194;50.950;5.346;2023-10-08T11:23:50;20.88;;;7.18;;
33902;SDS011;20194;50.950;5.346;2023-10-08T11:26:37;15.20;;;7.75;;
33902;SDS011;20194;50.950;5.346;2023-10-08T11:29:19;20.48;;;7.53;;
33902;SDS011;20194;50.950;5.346;2023-10-08T11:31:50;19.85;;;6.80;;
33902;SDS011;20194;50.950;5.346;2023-10-08T11:34:18;18.17;;;6.95;;
33902;SDS011;20194;50.950;5.346;2023-10-08T11:36:52;16.45;;;7.35;;
33902;SDS011;20194;50.950;5.346;2023-10-08T11:39:18;21.67;;;7.35;;
33902;SDS011;20194;50.950;5.346;2023-10-08T11:42:08;13.82;;;5.95;;
33902;SDS011;20194;50.950;5.346;2023-10-08T11:44:50;17.55;;;6.35;;
33902;SDS011;20194;50.950;5.346;2023-10-08T11:47:17;14.85;;;6.15;;
33902;SDS011;20194;50.950;5.346;2023-10-08T11:49:47;16.88;;;6.40;;
33902;SDS011;20194;50.950;5.346;2023-10-08T11:52:15;14.38;;;5.35;;
33902;SDS011;20194;50.950;5.346;2023-10-08T11:54:44;18.85;;;6.63;;
33902;SDS011;20194;50.950;5.346;2023-10-08T11:57:11;20.75;;;6.57;;
33902;SDS011;20194;50.950;5.346;2023-10-08T11:59:38;14.05;;;6.10;;
33902;SDS011;20194;50.950;5.346;2023-10-08T12:02:05;18.90;;;7.15;;
33902;SDS011;20194;50.950;5.346;2023-10-08T12:04:31;24.13;;;7.50;;
33902;SDS011;20194;50.950;5.346;2023-10-08T12:06:57;23.65;;;5.88;;
33902;SDS011;20194;50.950;5.346;2023-10-08T12:09:27;25.38;;;6.72;;
33902;SDS011;20194;50.950;5.346;2023-10-08T12:11:53;12.48;;;6.32;;
33902;SDS011;20194;50.950;5.346;2023-10-08T12:14:21;18.98;;;6.32;;
33902;SDS011;20194;50.950;5.346;2023-10-08T12:16:51;15.38;;;6.57;;
33902;SDS011;20194;50.950;5.346;2023-10-08T12:19:17;18.25;;;6.65;;
33902;SDS011;20194;50.950;5.346;2023-10-08T12:21:44;15.55;;;6.68;;
33902;SDS011;20194;50.950;5.346;2023-10-08T12:24:12;15.45;;;5.88;;
33902;SDS011;20194;50.950;5.346;2023-10-08T12:26:41;18.63;;;6.03;;
33902;SDS011;20194;50.950;5.346;2023-10-08T12:29:11;17.88;;;8.00;;
33902;SDS011;20194;50.950;5.346;2023-10-08T12:31:39;16.38;;;5.75;;
33902;SDS011;20194;50.950;5.346;2023-10-08T12:34:05;17.05;;;6.07;;
33902;SDS011;20194;50.950;5.346;2023-10-08T12:36:31;17.60;;;6.68;;
33902;SDS011;20194;50.950;5.346;2023-10-08T12:39:01;19.90;;;6.97;;
33902;SDS011;20194;50.950;5.346;2023-10-08T12:41:40;13.27;;;6.80;;
33902;SDS011;20194;50.950;5.346;2023-10-08T12:44:08;14.77;;;5.75;;
33902;SDS011;20194;50.950;5.346;2023-10-08T12:46:35;15.75;;;5.15;;
33902;SDS011;20194;50.950;5.346;2023-10-08T12:49:01;16.48;;;5.85;;
33902;SDS011;20194;50.950;5.346;2023-10-08T12:51:27;14.70;;;5.80;;
33902;SDS011;20194;50.950;5.346;2023-10-08T12:53:57;24.55;;;7.15;;
33902;SDS011;20194;50.950;5.346;2023-10-08T12:56:28;17.45;;;5.82;;
33902;SDS011;20194;50.950;5.346;2023-10-08T12:58:57;14.75;;;5.63;;
33902;SDS011;20194;50.950;5.346;2023-10-08T13:01:24;19.17;;;6.57;;
33902;SDS011;20194;50.950;5.346;2023-10-08T13:03:54;26.63;;;8.32;;
33902;SDS011;20194;50.950;5.346;2023-10-08T13:06:25;18.52;;;6.80;;
33902;SDS011;20194;50.950;5.346;2023-10-08T13:08:59;22.52;;;6.63;;
33902;SDS011;20194;50.950;5.346;2023-10-08T13:11:26;16.70;;;5.70;;
33902;SDS011;20194;50.950;5.346;2023-10-08T13:13:57;14.95;;;5.85;;
33902;SDS011;20194;50.950;5.346;2023-10-08T13:16:23;16.83;;;5.82;;
33902;SDS011;20194;50.950;5.346;2023-10-08T13:18:50;19.85;;;5.45;;
33902;SDS011;20194;50.950;5.346;2023-10-08T13:21:17;13.73;;;5.97;;
33902;SDS011;20194;50.950;5.346;2023-10-08T13:23:50;21.83;;;6.43;;
33902;SDS011;20194;50.950;5.346;2023-10-08T13:26:16;20.05;;;6.50;;
33902;SDS011;20194;50.950;5.346;2023-10-08T13:28:42;17.67;;;6.15;;
33902;SDS011;20194;50.950;5.346;2023-10-08T13:31:09;17.63;;;5.88;;
33902;SDS011;20194;50.950;5.346;2023-10-08T13:33:37;16.90;;;6.03;;
33902;SDS011;20194;50.950;5.346;2023-10-08T13:36:10;15.45;;;5.63;;
33902;SDS011;20194;50.950;5.346;2023-10-08T13:38:38;12.00;;;5.60;;
33902;SDS011;20194;50.950;5.346;2023-10-08T13:41:06;23.88;;;5.68;;
33902;SDS011;20194;50.950;5.346;2023-10-08T13:43:43;18.98;;;5.25;;
33902;SDS011;20194;50.950;5.346;2023-10-08T13:46:19;20.55;;;6.50;;
33902;SDS011;20194;50.950;5.346;2023-10-08T13:48:47;19.98;;;6.30;;
33902;SDS011;20194;50.950;5.346;2023-10-08T13:51:18;13.55;;;5.95;;
33902;SDS011;20194;50.950;5.346;2023-10-08T13:53:51;22.35;;;5.60;;
33902;SDS011;20194;50.950;5.346;2023-10-08T13:56:19;13.95;;;5.20;;
33902;SDS011;20194;50.950;5.346;2023-10-08T13:58:49;16.23;;;5.43;;
33902;SDS011;20194;50.950;5.346;2023-10-08T14:01:16;15.93;;;6.05;;
33902;SDS011;20194;50.950;5.346;2023-10-08T14:03:46;14.00;;;5.25;;
33902;SDS011;20194;50.950;5.346;2023-10-08T14:06:13;19.60;;;6.38;;
33902;SDS011;20194;50.950;5.346;2023-10-08T14:08:42;19.48;;;6.55;;
33902;SDS011;20194;50.950;5.346;2023-10-08T14:11:19;13.35;;;5.85;;
33902;SDS011;20194;50.950;5.346;2023-10-08T14:13:55;13.00;;;6.28;;
33902;SDS011;20194;50.950;5.346;2023-10-08T14:16:21;29.48;;;6.93;;
33902;SDS011;20194;50.950;5.346;2023-10-08T14:18:54;18.48;;;5.40;;
33902;SDS011;20194;50.950;5.346;2023-10-08T14:21:21;16.48;;;5.60;;
33902;SDS011;20194;50.950;5.346;2023-10-08T14:23:55;15.15;;;5.43;;
33902;SDS011;20194;50.950;5.346;2023-10-08T14:26:27;16.20;;;5.78;;
33902;SDS011;20194;50.950;5.346;2023-10-08T14:29:00;14.52;;;5.63;;
33902;SDS011;20194;50.950;5.346;2023-10-08T14:31:32;18.35;;;5.38;;
33902;SDS011;20194;50.950;5.346;2023-10-08T14:33:59;20.38;;;6.53;;
33902;SDS011;20194;50.950;5.346;2023-10-08T14:36:44;19.17;;;5.97;;
33902;SDS011;20194;50.950;5.346;2023-10-08T14:39:28;13.07;;;5.47;;
33902;SDS011;20194;50.950;5.346;2023-10-08T14:42:12;16.20;;;5.50;;
33902;SDS011;20194;50.950;5.346;2023-10-08T14:44:56;21.75;;;5.40;;
33902;SDS011;20194;50.950;5.346;2023-10-08T14:47:22;12.43;;;6.15;;
33902;SDS011;20194;50.950;5.346;2023-10-08T14:49:47;13.48;;;5.55;;
33902;SDS011;20194;50.950;5.346;2023-10-08T14:52:14;11.88;;;5.35;;
33902;SDS011;20194;50.950;5.346;2023-10-08T14:54:40;11.30;;;4.90;;
33902;SDS011;20194;50.950;5.346;2023-10-08T14:57:08;14.38;;;5.18;;
33902;SDS011;20194;50.950;5.346;2023-10-08T14:59:34;13.80;;;6.10;;
33902;SDS011;20194;50.950;5.346;2023-10-08T15:02:01;16.30;;;5.20;;
33902;SDS011;20194;50.950;5.346;2023-10-08T15:04:27;13.07;;;5.90;;
33902;SDS011;20194;50.950;5.346;2023-10-08T15:06:57;18.00;;;5.68;;
33902;SDS011;20194;50.950;5.346;2023-10-08T15:09:24;20.70;;;5.88;;
33902;SDS011;20194;50.950;5.346;2023-10-08T15:11:50;13.88;;;5.38;;
33902;SDS011;20194;50.950;5.346;2023-10-08T15:14:19;16.13;;;5.70;;
33902;SDS011;20194;50.950;5.346;2023-10-08T15:16:47;12.75;;;5.22;;